createdAt,value
2022-12-26T00:01:36.291Z,2.73
2022-12-26T00:04:06.462Z,2.43
2022-12-26T00:06:54.875Z,3.27
2022-12-26T00:09:22.751Z,2.07
2022-12-26T00:11:50.337Z,1.37
2022-12-26T00:14:18.639Z,1.40
2022-12-26T00:16:47.052Z,1.70
2022-12-26T00:19:16.170Z,2.20
2022-12-26T00:21:44.180Z,1.67
2022-12-26T00:24:12.777Z,1.30
2022-12-26T00:26:40.677Z,3.60
2022-12-26T00:29:08.405Z,1.70
2022-12-26T00:31:37.134Z,1.93
2022-12-26T00:34:08.145Z,1.90
2022-12-26T00:36:37.021Z,2.10
2022-12-26T00:39:07.793Z,2.80
2022-12-26T00:41:44.238Z,1.33
2022-12-26T00:44:12.727Z,1.87
2022-12-26T00:46:43.080Z,2.40
2022-12-26T00:49:11.853Z,2.90
2022-12-26T00:51:39.674Z,4.90
2022-12-26T00:54:08.934Z,5.40
2022-12-26T00:56:36.729Z,6.70
2022-12-26T00:59:04.368Z,7.57
2022-12-26T01:01:34.629Z,2.43
2022-12-26T01:04:05.786Z,2.33
2022-12-26T01:06:33.565Z,2.10
2022-12-26T01:09:01.899Z,2.10
2022-12-26T01:11:43.880Z,2.27
2022-12-26T01:14:17.001Z,4.00
2022-12-26T01:16:45.922Z,2.80
2022-12-26T01:19:14.855Z,3.20
2022-12-26T01:21:43.946Z,3.67
2022-12-26T01:24:13.975Z,2.30
2022-12-26T01:26:43.484Z,2.23
2022-12-26T01:29:11.289Z,3.90
2022-12-26T01:31:39.384Z,4.53
2022-12-26T01:34:06.777Z,2.90
2022-12-26T01:36:35.648Z,2.93
2022-12-26T01:39:04.233Z,6.80
2022-12-26T01:41:33.970Z,5.20
2022-12-26T01:44:28.518Z,5.67
2022-12-26T01:46:56.070Z,5.40
2022-12-26T01:49:38.351Z,4.80
2022-12-26T01:52:12.497Z,3.80
2022-12-26T01:54:42.578Z,5.00
2022-12-26T01:57:17.943Z,3.90
2022-12-26T01:59:47.376Z,4.30
2022-12-26T02:02:16.011Z,4.57
2022-12-26T02:05:05.388Z,4.17
2022-12-26T02:07:34.652Z,5.17
2022-12-26T02:10:04.418Z,5.57
2022-12-26T02:12:38.833Z,5.70
2022-12-26T02:15:12.206Z,5.90
2022-12-26T02:17:40.587Z,6.80
2022-12-26T02:20:39.423Z,5.90
2022-12-26T02:23:22.340Z,5.00
2022-12-26T02:25:58.759Z,5.23
2022-12-26T02:28:50.192Z,4.40
2022-12-26T02:31:37.945Z,5.10
2022-12-26T02:34:22.019Z,4.37
2022-12-26T02:37:08.931Z,4.47
2022-12-26T02:39:51.084Z,5.07
2022-12-26T02:43:02.268Z,4.20
2022-12-26T02:45:59.544Z,4.17
2022-12-26T02:48:53.439Z,4.70
2022-12-26T02:52:20.270Z,4.67
2022-12-26T02:55:23.843Z,3.70
2022-12-26T02:58:48.730Z,4.20
2022-12-26T03:01:55.435Z,7.67
2022-12-26T03:04:41.722Z,5.30
2022-12-26T03:07:35.627Z,5.00
2022-12-26T03:10:23.280Z,5.07
2022-12-26T03:16:21.172Z,4.30
2022-12-26T03:18:57.075Z,6.17
2022-12-26T03:21:30.372Z,4.87
2022-12-26T03:23:58.283Z,5.37
2022-12-26T03:26:42.173Z,6.00
2022-12-26T03:29:32.663Z,5.40
2022-12-26T03:32:01.229Z,4.03
2022-12-26T03:34:30.257Z,4.20
2022-12-26T03:37:10.293Z,4.50
2022-12-26T03:40:17.751Z,4.20
2022-12-26T03:43:24.310Z,4.00
2022-12-26T03:46:36.598Z,12.63
2022-12-26T03:49:35.312Z,7.27
2022-12-26T03:52:54.412Z,8.13
2022-12-26T03:56:03.237Z,6.50
2022-12-26T03:59:12.593Z,6.97
2022-12-26T04:02:00.048Z,5.20
2022-12-26T04:04:46.793Z,5.50
2022-12-26T04:07:56.593Z,3.80
2022-12-26T04:10:55.360Z,4.47
2022-12-26T04:14:19.632Z,5.20
2022-12-26T04:17:13.135Z,4.93
2022-12-26T04:19:57.231Z,3.67
2022-12-26T04:22:50.601Z,3.53
2022-12-26T04:25:50.379Z,4.33
2022-12-26T04:28:37.388Z,4.13
2022-12-26T04:31:36.953Z,3.80
2022-12-26T04:34:26.974Z,3.00
2022-12-26T04:37:17.065Z,2.60
2022-12-26T04:40:05.498Z,3.83
2022-12-26T04:42:51.686Z,5.23
2022-12-26T04:45:19.747Z,3.17
2022-12-26T04:48:07.505Z,3.07
2022-12-26T04:50:36.040Z,2.50
2022-12-26T04:53:04.642Z,3.43
2022-12-26T04:55:33.648Z,3.60
2022-12-26T04:58:01.679Z,3.40
2022-12-26T05:00:29.372Z,4.00
2022-12-26T05:03:19.210Z,4.20
2022-12-26T05:06:07.473Z,6.47
2022-12-26T05:08:58.950Z,8.20
2022-12-26T05:11:26.887Z,6.83
2022-12-26T05:13:57.159Z,8.20
2022-12-26T05:16:43.488Z,6.80
2022-12-26T05:19:35.118Z,6.83
2022-12-26T05:22:21.581Z,8.30
2022-12-26T05:25:09.664Z,5.00
2022-12-26T05:28:02.520Z,4.73
2022-12-26T05:30:31.187Z,4.97
2022-12-26T05:33:17.399Z,5.10
2022-12-26T05:35:44.744Z,5.97
2022-12-26T05:38:13.578Z,5.03
2022-12-26T05:40:41.424Z,4.23
2022-12-26T05:43:09.230Z,3.93
2022-12-26T05:45:37.184Z,5.30
2022-12-26T05:48:05.926Z,5.97
2022-12-26T05:50:34.515Z,7.47
2022-12-26T05:53:02.244Z,7.30
2022-12-26T05:55:30.047Z,5.10
2022-12-26T05:57:58.266Z,7.20
2022-12-26T06:00:27.665Z,6.53
2022-12-26T06:02:55.638Z,3.37
2022-12-26T06:05:23.461Z,4.80
2022-12-26T06:07:51.998Z,4.20
2022-12-26T06:10:19.491Z,4.70
2022-12-26T06:12:51.572Z,6.40
2022-12-26T06:15:19.784Z,6.03
2022-12-26T06:17:47.483Z,10.77
2022-12-26T06:20:15.293Z,17.93
2022-12-26T06:22:43.117Z,24.13
2022-12-26T06:25:10.780Z,26.27
2022-12-26T06:27:38.299Z,26.27
2022-12-26T06:30:06.696Z,21.87
2022-12-26T06:32:34.497Z,24.03
2022-12-26T06:35:02.965Z,23.73
2022-12-26T06:37:32.635Z,19.20
2022-12-26T06:40:00.375Z,15.90
2022-12-26T06:42:28.001Z,10.00
2022-12-26T06:44:56.475Z,6.67
2022-12-26T06:47:25.009Z,6.73
2022-12-26T06:49:54.797Z,7.17
2022-12-26T06:52:26.016Z,8.27
2022-12-26T06:54:55.712Z,8.60
2022-12-26T06:57:23.388Z,11.13
2022-12-26T06:59:53.140Z,10.47
2022-12-26T07:02:20.963Z,11.83
2022-12-26T07:04:48.646Z,16.57
2022-12-26T07:07:16.460Z,13.63
2022-12-26T07:09:44.284Z,11.40
2022-12-26T07:12:12.453Z,32.20
2022-12-26T07:14:42.653Z,57.53
2022-12-26T07:17:11.818Z,37.37
2022-12-26T07:19:39.207Z,22.57
2022-12-26T07:22:07.144Z,6.10
2022-12-26T07:24:35.041Z,6.03
2022-12-26T07:27:02.486Z,6.10
2022-12-26T07:29:30.894Z,5.70
2022-12-26T07:31:59.784Z,7.00
2022-12-26T07:34:31.695Z,7.20
2022-12-26T07:36:59.885Z,6.43
2022-12-26T07:39:29.555Z,6.27
2022-12-26T07:42:00.778Z,7.73
2022-12-26T07:44:29.737Z,7.40
2022-12-26T07:46:59.299Z,5.40
2022-12-26T07:49:27.177Z,5.40
2022-12-26T07:51:55.815Z,5.87
2022-12-26T07:54:25.603Z,7.00
2022-12-26T07:56:53.464Z,6.10
2022-12-26T07:59:21.259Z,6.60
2022-12-26T08:01:51.106Z,4.70
2022-12-26T08:04:19.751Z,5.60
2022-12-26T08:06:47.471Z,5.27
2022-12-26T08:09:19.225Z,5.33
2022-12-26T08:11:47.357Z,6.50
2022-12-26T08:14:17.363Z,7.20
2022-12-26T08:16:49.711Z,7.70
2022-12-26T08:19:20.570Z,8.03
2022-12-26T08:21:48.291Z,8.10
2022-12-26T08:24:17.639Z,8.80
2022-12-26T08:26:45.185Z,7.77
2022-12-26T08:29:12.585Z,9.00
2022-12-26T08:31:40.889Z,10.70
2022-12-26T08:34:10.625Z,29.40
2022-12-26T08:36:39.041Z,22.50
2022-12-26T08:39:19.283Z,25.83
2022-12-26T08:41:46.743Z,18.80
2022-12-26T08:44:30.621Z,12.47
2022-12-26T08:47:00.203Z,12.93
2022-12-26T08:49:27.681Z,8.30
2022-12-26T08:51:55.751Z,7.30
2022-12-26T08:54:25.162Z,9.33
2022-12-26T08:56:52.939Z,11.67
2022-12-26T08:59:20.862Z,9.93
2022-12-26T09:01:49.519Z,12.80
2022-12-26T09:04:18.279Z,13.43
2022-12-26T09:06:46.731Z,12.80
2022-12-26T09:09:14.781Z,14.10
2022-12-26T09:11:46.726Z,8.73
2022-12-26T09:14:25.580Z,7.90
2022-12-26T09:16:59.298Z,7.30
2022-12-26T09:19:34.188Z,6.13
2022-12-26T09:22:20.226Z,6.27
2022-12-26T09:24:48.267Z,6.57
2022-12-26T09:27:22.024Z,5.63
2022-12-26T09:29:50.434Z,6.93
2022-12-26T09:32:21.616Z,6.33
2022-12-26T09:34:51.157Z,8.10
2022-12-26T09:37:19.794Z,10.33
2022-12-26T09:39:47.341Z,13.63
2022-12-26T09:42:45.737Z,12.00
2022-12-26T09:45:20.662Z,8.50
2022-12-26T09:48:08.128Z,9.33
2022-12-26T09:50:42.951Z,8.60
2022-12-26T09:53:20.746Z,7.77
2022-12-26T09:55:53.983Z,8.63
2022-12-26T10:02:24.603Z,7.47
2022-12-26T10:05:29.988Z,7.93
2022-12-26T10:12:10.291Z,6.60
2022-12-26T10:14:53.902Z,7.50
2022-12-26T10:17:58.591Z,8.20
2022-12-26T10:20:44.507Z,7.23
2022-12-26T10:23:20.332Z,7.53
2022-12-26T10:26:00.665Z,8.33
2022-12-26T10:28:47.434Z,9.47
2022-12-26T10:31:53.278Z,8.53
2022-12-26T10:34:54.127Z,8.20
2022-12-26T10:37:41.879Z,7.90
2022-12-26T10:40:34.150Z,7.40
2022-12-26T10:43:29.498Z,8.53
2022-12-26T10:46:18.209Z,8.43
2022-12-26T10:48:48.751Z,8.33
2022-12-26T10:51:25.229Z,8.60
2022-12-26T10:53:53.226Z,7.93
2022-12-26T10:56:21.349Z,6.57
2022-12-26T10:58:59.521Z,7.10
2022-12-26T11:01:29.749Z,7.40
2022-12-26T11:04:00.320Z,8.10
2022-12-26T11:06:43.297Z,6.40
2022-12-26T11:09:39.345Z,7.70
2022-12-26T11:12:07.769Z,6.67
2022-12-26T11:14:45.867Z,7.03
2022-12-26T11:17:37.179Z,6.70
2022-12-26T11:20:16.632Z,6.70
2022-12-26T11:22:47.732Z,7.03
2022-12-26T11:25:23.846Z,6.10
2022-12-26T11:27:58.935Z,7.47
2022-12-26T11:30:34.314Z,6.60
2022-12-26T11:33:34.273Z,6.80
2022-12-26T11:36:19.869Z,5.70
2022-12-26T11:39:05.454Z,5.87
2022-12-26T11:41:41.570Z,4.87
2022-12-26T11:44:21.071Z,6.07
2022-12-26T11:47:23.419Z,4.83
2022-12-26T11:50:09.057Z,4.60
2022-12-26T11:52:40.071Z,6.20
2022-12-26T11:55:31.077Z,4.97
2022-12-26T11:58:10.535Z,4.47
2022-12-26T12:00:43.617Z,5.33
2022-12-26T12:03:16.657Z,4.93
2022-12-26T12:06:23.349Z,4.43
2022-12-26T12:09:15.318Z,4.50
2022-12-26T12:12:09.892Z,5.37
2022-12-26T12:15:02.704Z,4.70
2022-12-26T12:17:39.287Z,4.80
2022-12-26T12:20:32.804Z,4.53
2022-12-26T12:23:20.597Z,3.27
2022-12-26T12:25:51.405Z,4.30
2022-12-26T12:28:40.826Z,3.97
2022-12-26T12:31:18.013Z,3.80
2022-12-26T12:33:54.961Z,5.03
2022-12-26T12:36:50.601Z,5.70
2022-12-26T12:39:27.028Z,5.57
2022-12-26T12:42:01.484Z,4.50
2022-12-26T12:44:54.054Z,5.80
2022-12-26T12:47:38.217Z,5.80
2022-12-26T12:50:21.985Z,5.13
2022-12-26T12:53:29.852Z,4.70
2022-12-26T12:56:12.326Z,4.57
2022-12-26T12:58:46.668Z,3.80
2022-12-26T13:01:30.728Z,3.57
2022-12-26T13:04:20.910Z,4.30
2022-12-26T13:07:00.628Z,3.70
2022-12-26T13:09:59.864Z,3.53
2022-12-26T13:12:31.380Z,4.00
2022-12-26T13:15:22.184Z,4.50
2022-12-26T13:18:09.155Z,4.40
2022-12-26T13:20:47.891Z,4.47
2022-12-26T13:23:55.629Z,4.00
2022-12-26T13:26:28.194Z,3.80
2022-12-26T13:29:03.453Z,4.27
2022-12-26T13:31:39.989Z,4.37
2022-12-26T13:34:19.252Z,3.93
2022-12-26T13:36:51.117Z,3.73
2022-12-26T13:39:22.305Z,4.80
2022-12-26T13:42:14.433Z,4.50
2022-12-26T13:44:42.287Z,5.47
2022-12-26T13:47:40.066Z,4.60
2022-12-26T13:50:49.989Z,4.40
2022-12-26T13:53:41.218Z,4.83
2022-12-26T13:56:15.651Z,5.60
2022-12-26T13:59:05.529Z,4.60
2022-12-26T14:01:47.302Z,4.90
2022-12-26T14:04:38.407Z,4.20
2022-12-26T14:07:29.609Z,4.50
2022-12-26T14:10:11.998Z,3.40
2022-12-26T14:13:00.768Z,4.47
2022-12-26T14:15:37.082Z,2.80
2022-12-26T14:18:06.768Z,3.23
2022-12-26T14:20:46.791Z,2.77
2022-12-26T14:23:39.562Z,4.00
2022-12-26T14:26:43.806Z,3.20
2022-12-26T14:29:24.054Z,4.03
2022-12-26T14:32:12.061Z,3.13
2022-12-26T14:35:35.009Z,3.37
2022-12-26T14:38:44.637Z,3.70
2022-12-26T14:41:34.549Z,3.17
2022-12-26T14:47:49.563Z,3.10
2022-12-26T14:50:40.369Z,3.23
2022-12-26T14:53:37.229Z,2.87
2022-12-26T14:56:38.029Z,3.70
2022-12-26T14:59:57.522Z,3.57
2022-12-26T15:02:35.020Z,3.30
2022-12-26T15:05:20.605Z,4.60
2022-12-26T15:08:01.140Z,3.00
2022-12-26T15:11:03.769Z,4.27
2022-12-26T15:14:04.054Z,3.47
2022-12-26T15:16:46.278Z,3.60
2022-12-26T15:19:32.062Z,3.97
2022-12-26T15:22:29.809Z,3.93
2022-12-26T15:28:15.955Z,3.57
2022-12-26T15:31:04.622Z,3.00
2022-12-26T15:33:42.638Z,4.30
2022-12-26T15:36:31.390Z,4.93
2022-12-26T15:39:12.665Z,3.77
2022-12-26T15:42:17.872Z,5.00
2022-12-26T15:45:20.548Z,4.20
2022-12-26T15:48:05.183Z,4.30
2022-12-26T15:50:51.060Z,5.03
2022-12-26T15:53:33.710Z,5.37
2022-12-26T16:00:01.001Z,4.97
2022-12-26T16:03:08.860Z,3.97
2022-12-26T16:05:44.642Z,4.00
2022-12-26T16:08:47.971Z,3.60
2022-12-26T16:11:49.860Z,4.27
2022-12-26T16:14:39.367Z,4.20
2022-12-26T16:17:16.042Z,4.30
2022-12-26T16:19:51.116Z,4.20
2022-12-26T16:22:50.864Z,3.60
2022-12-26T16:25:22.546Z,4.03
2022-12-26T16:27:52.098Z,4.70
2022-12-26T16:30:24.581Z,4.03
2022-12-26T16:32:54.156Z,4.30
2022-12-26T16:35:30.008Z,3.57
2022-12-26T16:38:07.480Z,4.10
2022-12-26T16:41:25.312Z,4.60
2022-12-26T16:43:55.006Z,5.30
2022-12-26T16:46:25.412Z,4.67
2022-12-26T16:49:29.794Z,4.93
2022-12-26T16:52:32.568Z,4.67
2022-12-26T16:55:29.443Z,7.30
2022-12-26T16:58:15.784Z,6.97
2022-12-26T17:01:09.176Z,7.63
2022-12-26T17:03:57.429Z,7.50
2022-12-26T17:07:08.216Z,7.60
2022-12-26T17:09:45.868Z,7.90
2022-12-26T17:12:28.097Z,7.70
2022-12-26T17:14:56.233Z,7.00
2022-12-26T17:20:47.070Z,3.60
2022-12-26T17:23:46.913Z,3.80
2022-12-26T17:26:24.950Z,4.70
2022-12-26T17:28:55.049Z,7.73
2022-12-26T17:31:36.601Z,6.33
2022-12-26T17:34:25.300Z,3.60
2022-12-26T17:37:20.060Z,3.43
2022-12-26T17:40:16.239Z,3.60
2022-12-26T17:43:21.896Z,3.00
2022-12-26T17:45:54.612Z,3.53
2022-12-26T17:48:48.626Z,3.40
2022-12-26T17:55:33.003Z,4.10
2022-12-26T18:01:01.652Z,4.60
2022-12-26T18:03:41.305Z,2.47
2022-12-26T18:06:22.722Z,3.30
2022-12-26T18:08:51.634Z,3.57
2022-12-26T18:11:27.032Z,3.40
2022-12-26T18:13:57.178Z,5.30
2022-12-26T18:16:28.711Z,3.40
2022-12-26T18:18:58.278Z,2.60
2022-12-26T18:21:26.315Z,3.80
2022-12-26T18:23:53.862Z,3.50
2022-12-26T18:26:27.031Z,3.80
2022-12-26T18:28:54.772Z,4.70
2022-12-26T18:31:22.321Z,3.47
2022-12-26T18:33:58.306Z,3.90
2022-12-26T18:36:34.610Z,3.90
2022-12-26T18:39:04.719Z,5.30
2022-12-26T18:41:34.379Z,3.67
2022-12-26T18:44:03.606Z,4.03
2022-12-26T18:46:31.348Z,4.57
2022-12-26T18:49:01.274Z,4.10
2022-12-26T18:51:41.988Z,3.53
2022-12-26T18:54:09.539Z,4.33
2022-12-26T18:56:36.984Z,3.40
2022-12-26T18:59:12.106Z,4.20
2022-12-26T19:01:39.865Z,3.77
2022-12-26T19:04:14.074Z,4.90
2022-12-26T19:06:42.722Z,4.00
2022-12-26T19:09:19.717Z,3.87
2022-12-26T19:11:48.423Z,4.00
2022-12-26T19:14:21.587Z,4.03
2022-12-26T19:16:49.909Z,3.60
2022-12-26T19:19:17.164Z,4.00
2022-12-26T19:21:48.455Z,4.47
2022-12-26T19:24:16.700Z,12.07
2022-12-26T19:26:50.066Z,8.20
2022-12-26T19:29:19.222Z,6.83
2022-12-26T19:31:48.825Z,5.77
2022-12-26T19:34:19.105Z,3.43
2022-12-26T19:36:59.195Z,6.13
2022-12-26T19:39:33.409Z,6.20
2022-12-26T19:42:06.670Z,6.77
2022-12-26T19:44:34.881Z,7.27
2022-12-26T19:47:12.406Z,5.13
2022-12-26T19:49:42.994Z,4.47
2022-12-26T19:52:26.467Z,6.77
2022-12-26T19:54:54.124Z,7.07
2022-12-26T19:57:31.072Z,6.90
2022-12-26T19:59:58.329Z,10.30
2022-12-26T20:02:25.497Z,8.50
2022-12-26T20:04:52.841Z,5.00
2022-12-26T20:07:21.750Z,4.00
2022-12-26T20:09:52.451Z,3.83
2022-12-26T20:12:19.911Z,4.30
2022-12-26T20:14:48.353Z,8.20
2022-12-26T20:17:15.478Z,10.40
2022-12-26T20:19:46.719Z,7.40
2022-12-26T20:22:14.541Z,6.17
2022-12-26T20:24:42.746Z,7.07
2022-12-26T20:27:09.951Z,6.53
2022-12-26T20:29:39.302Z,5.40
2022-12-26T20:32:09.172Z,5.13
2022-12-26T20:34:40.884Z,5.87
2022-12-26T20:37:08.782Z,7.90
2022-12-26T20:39:38.749Z,6.93
2022-12-26T20:42:18.354Z,6.00
2022-12-26T20:44:59.140Z,6.90
2022-12-26T20:47:28.893Z,6.53
2022-12-26T20:49:58.513Z,5.70
2022-12-26T20:52:26.891Z,5.80
2022-12-26T20:54:54.843Z,6.60
2022-12-26T20:57:22.539Z,6.53
2022-12-26T20:59:49.613Z,5.60
2022-12-26T21:02:17.209Z,5.90
2022-12-26T21:04:47.071Z,5.70
2022-12-26T21:07:16.015Z,5.27
2022-12-26T21:09:46.550Z,4.80
2022-12-26T21:12:14.921Z,4.73
2022-12-26T21:14:46.600Z,4.20
2022-12-26T21:17:19.472Z,4.63
2022-12-26T21:19:46.572Z,6.10
2022-12-26T21:22:16.265Z,6.60
2022-12-26T21:24:47.023Z,6.03
2022-12-26T21:27:23.309Z,6.17
2022-12-26T21:29:55.035Z,6.30
2022-12-26T21:32:22.064Z,5.10
2022-12-26T21:34:50.138Z,6.10
2022-12-26T21:37:35.684Z,5.50
2022-12-26T21:40:04.170Z,5.40
2022-12-26T21:42:38.313Z,4.83
2022-12-26T21:45:07.893Z,4.97
2022-12-26T21:47:35.973Z,6.80
2022-12-26T21:50:03.068Z,5.70
2022-12-26T21:52:30.108Z,5.33
2022-12-26T21:55:15.954Z,7.37
2022-12-26T21:57:44.120Z,8.60
2022-12-26T22:00:11.553Z,8.67
2022-12-26T22:02:58.290Z,7.67
2022-12-26T22:05:26.936Z,6.73
2022-12-26T22:07:59.882Z,6.00
2022-12-26T22:10:47.651Z,5.47
2022-12-26T22:13:16.115Z,5.80
2022-12-26T22:16:02.339Z,6.03
2022-12-26T22:18:33.646Z,5.07
2022-12-26T22:21:05.098Z,4.30
2022-12-26T22:23:32.706Z,4.30
2022-12-26T22:26:00.152Z,7.23
2022-12-26T22:28:30.851Z,7.23
2022-12-26T22:30:59.237Z,5.93
2022-12-26T22:33:34.558Z,5.70
2022-12-26T22:39:25.208Z,4.87
2022-12-26T22:41:57.491Z,5.20
2022-12-26T22:44:27.804Z,5.37
2022-12-26T22:46:55.538Z,6.10
2022-12-26T22:49:23.088Z,6.37
2022-12-26T22:51:51.627Z,5.93
2022-12-26T22:54:29.542Z,5.43
2022-12-26T22:56:57.728Z,7.10
2022-12-26T22:59:57.997Z,5.10
2022-12-26T23:02:16.207Z,5.80
2022-12-26T23:04:45.624Z,4.53
2022-12-26T23:07:15.476Z,5.07
2022-12-26T23:09:55.398Z,4.73
2022-12-26T23:12:44.597Z,5.17
2022-12-26T23:15:14.070Z,4.80
2022-12-26T23:18:03.702Z,4.17
2022-12-26T23:20:51.193Z,4.30
2022-12-26T23:23:21.050Z,5.20
2022-12-26T23:25:48.543Z,4.90
2022-12-26T23:28:35.928Z,6.00
2022-12-26T23:31:11.326Z,5.90
2022-12-26T23:33:42.373Z,6.10
2022-12-26T23:36:13.319Z,5.77
2022-12-26T23:38:51.519Z,4.67
2022-12-26T23:41:20.548Z,4.53
2022-12-26T23:43:48.887Z,4.57
2022-12-26T23:46:22.582Z,5.33
2022-12-26T23:48:51.612Z,5.27
2022-12-26T23:51:19.805Z,5.90
2022-12-26T23:53:52.219Z,6.20
2022-12-26T23:56:24.979Z,6.60
2022-12-26T23:58:54.624Z,5.87
